Time;durP1;ratioP1;P1;durP2;ratioP2;P2;SDS_P1;SDS_P2;PMS_P1;PMS_P2;Temp;Humidity;BMP_temperature;BMP_pressure;BME280_temperature;BME280_humidity;BME280_pressure;Samples;Min_cycle;Max_cycle;Signal;HPM_P1;HPM_P2
2023/04/10 00:01:44;;;;;;;4.23;3.93;;;;;;;19.39;49.22;98208.59;4943826;29;20231;-29
2023/04/10 00:04:10;;;;;;;4.30;4.00;;;;;;;19.35;49.27;98182.91;4945639;29;20601;-29
2023/04/10 00:06:37;;;;;;;4.60;4.20;;;;;;;19.42;49.44;98197.72;4952899;29;20327;-27
2023/04/10 00:09:04;;;;;;;4.27;3.87;;;;;;;19.37;49.39;98178.75;4952483;29;20208;-29
2023/04/10 00:11:30;;;;;;;4.17;3.87;;;;;;;19.43;49.50;98196.88;4946135;29;20266;-29
2023/04/10 00:13:57;;;;;;;4.23;3.93;;;;;;;19.43;49.58;98197.78;4943991;29;20200;-27
2023/04/10 00:16:23;;;;;;;4.40;4.00;;;;;;;19.43;49.81;98199.44;4944428;29;20295;-29
2023/04/10 00:18:50;;;;;;;4.07;3.77;;;;;;;19.44;49.22;98204.63;4943797;29;20315;-29
2023/04/10 00:21:17;;;;;;;4.27;3.97;;;;;;;19.29;49.30;98178.38;4945290;29;20603;-30
2023/04/10 00:23:43;;;;;;;4.37;4.07;;;;;;;19.39;49.41;98188.22;4949554;29;20730;-28
2023/04/10 00:26:10;;;;;;;4.60;4.20;;;;;;;19.42;49.44;98195.16;4950826;29;20212;-27
2023/04/10 00:28:37;;;;;;;4.27;3.90;;;;;;;19.43;49.17;98194.34;4941333;28;20788;-29
2023/04/10 00:31:04;;;;;;;4.30;4.00;;;;;;;19.42;49.49;98197.72;4949957;28;20228;-30
2023/04/10 00:33:31;;;;;;;4.30;3.90;;;;;;;19.43;50.20;98191.78;4941303;29;20268;-29
2023/04/10 00:35:57;;;;;;;4.57;4.17;;;;;;;19.42;49.33;98182.41;4943915;29;20204;-28
2023/04/10 00:38:24;;;;;;;4.60;4.20;;;;;;;19.13;49.42;98135.06;4947998;29;20220;-28
2023/04/10 00:40:50;;;;;;;4.23;3.93;;;;;;;19.44;49.56;98175.69;4950050;28;20228;-29
2023/04/10 00:43:19;;;;;;;4.00;3.70;;;;;;;19.33;49.49;98159.03;4941590;29;20208;-29
2023/04/10 00:45:45;;;;;;;4.33;3.97;;;;;;;19.39;49.55;98170.38;4949684;29;20591;-28
2023/04/10 00:48:14;;;;;;;4.23;3.93;;;;;;;19.40;49.80;98167.03;4922883;29;20235;-28
2023/04/10 00:50:41;;;;;;;4.63;4.23;;;;;;;19.36;49.30;98154.94;4924062;29;20280;-28
2023/04/10 00:53:08;;;;;;;4.60;4.07;;;;;;;19.36;49.30;98159.19;4920738;29;20587;-27
2023/04/10 00:55:34;;;;;;;4.67;4.27;;;;;;;19.43;49.60;98176.50;4953575;29;20205;-28
2023/04/10 00:58:01;;;;;;;4.50;4.10;;;;;;;19.41;49.75;98168.78;4948604;28;20230;-27
2023/04/10 01:00:27;;;;;;;4.43;4.13;;;;;;;19.42;49.09;98174.75;4934555;29;20235;-29
2023/04/10 01:02:54;;;;;;;4.90;4.50;;;;;;;19.42;49.20;98174.75;4948383;28;20207;-29
2023/04/10 01:05:21;;;;;;;4.57;4.20;;;;;;;19.41;49.20;98168.78;4933570;29;20196;-29
2023/04/10 01:07:59;;;;;;;4.70;4.30;;;;;;;19.41;49.39;98163.69;4934615;29;20287;-28
2023/04/10 01:10:33;;;;;;;4.70;4.30;;;;;;;19.26;49.20;98132.34;4928893;29;20321;-29
2023/04/10 01:13:15;;;;;;;4.30;4.00;;;;;;;19.41;49.28;98167.91;4918227;29;20646;-29
2023/04/10 01:15:58;;;;;;;4.60;4.20;;;;;;;19.41;49.38;98167.91;4946959;28;20211;-29
2023/04/10 01:18:32;;;;;;;4.67;4.27;;;;;;;19.35;49.23;98155.75;4931198;29;20750;-28
2023/04/10 01:20:59;;;;;;;4.77;4.37;;;;;;;19.35;49.54;98149.75;4931818;29;20285;-27
2023/04/10 01:24:03;;;;;;;4.80;4.40;;;;;;;19.41;49.26;98167.91;4913284;29;20236;-28
2023/04/10 01:27:06;;;;;;;4.70;4.30;;;;;;;19.41;49.19;98167.91;4952399;29;20202;-28
2023/04/10 01:29:33;;;;;;;4.40;4.10;;;;;;;19.39;49.58;98159.31;4953003;29;20200;-28
2023/04/10 01:32:07;;;;;;;4.53;4.13;;;;;;;19.41;49.45;98160.25;4919834;29;20200;-29
2023/04/10 01:34:46;;;;;;;4.50;4.20;;;;;;;19.40;49.32;98161.06;4930109;29;20212;-28
2023/04/10 01:37:25;;;;;;;4.33;4.03;;;;;;;19.40;49.46;98163.59;4935301;29;20200;-29
2023/04/10 01:40:02;;;;;;;4.77;4.37;;;;;;;19.41;49.53;98162.78;4935511;29;20230;-28
2023/04/10 01:42:30;;;;;;;4.70;4.30;;;;;;;19.38;49.30;98152.47;4918131;29;20200;-28
2023/04/10 01:44:57;;;;;;;4.63;4.23;;;;;;;19.39;49.49;98154.22;4935532;29;20284;-28
2023/04/10 01:47:24;;;;;;;4.60;4.20;;;;;;;19.39;49.72;98149.97;4933203;29;20205;-27
2023/04/10 01:49:50;;;;;;;4.77;4.37;;;;;;;19.42;49.31;98146.72;4934962;29;20228;-28
2023/04/10 01:52:17;;;;;;;4.40;4.10;;;;;;;19.40;49.56;98149.19;4933272;29;20200;-28
2023/04/10 01:54:47;;;;;;;4.43;4.13;;;;;;;19.29;49.42;98129.09;4915653;28;20663;-27
2023/04/10 01:57:14;;;;;;;4.00;3.70;;;;;;;19.42;49.53;98149.28;4919359;29;20208;-29
2023/04/10 01:59:41;;;;;;;4.50;4.10;;;;;;;19.42;49.31;98149.28;4946193;28;20648;-27
2023/04/10 02:02:10;;;;;;;4.63;4.23;;;;;;;19.40;49.72;98150.88;4939196;28;20228;-28
2023/04/10 02:04:37;;;;;;;4.50;4.10;;;;;;;19.37;49.48;98140.53;4946877;29;20634;-29
2023/04/10 02:07:22;;;;;;;4.67;4.27;;;;;;;19.41;49.27;98155.16;4951130;29;20210;-29
2023/04/10 02:10:07;;;;;;;4.43;4.03;;;;;;;19.39;49.48;98146.59;4928799;29;20718;-28
2023/04/10 02:12:54;;;;;;;4.40;4.00;;;;;;;19.32;49.24;98125.00;4930110;29;20219;-31
2023/04/10 02:15:22;;;;;;;4.47;4.07;;;;;;;19.33;49.29;98141.19;4932304;29;20200;-27
2023/04/10 02:17:48;;;;;;;4.73;4.33;;;;;;;19.37;49.58;98148.16;4912752;29;20225;-28
2023/04/10 02:20:15;;;;;;;4.63;4.20;;;;;;;19.42;49.80;98151.81;4917697;29;20711;-30
2023/04/10 02:22:45;;;;;;;4.83;4.43;;;;;;;19.40;49.44;98146.66;4931647;29;20210;-29
2023/04/10 02:25:12;;;;;;;4.40;4.00;;;;;;;19.41;49.55;98140.75;4937009;29;20291;-32
2023/04/10 02:27:39;;;;;;;4.57;4.17;;;;;;;19.40;49.44;98145.78;4947003;29;20295;-27
2023/04/10 02:30:06;;;;;;;4.30;3.90;;;;;;;19.40;49.40;98133.91;4956300;28;20224;-27
2023/04/10 02:32:33;;;;;;;5.20;4.70;;;;;;;19.34;49.51;98128.53;4948596;29;20229;-28
2023/04/10 02:35:00;;;;;;;4.53;4.13;;;;;;;19.39;49.44;98142.34;4946981;29;20201;-28
2023/04/10 02:37:27;;;;;;;4.60;4.20;;;;;;;19.39;49.32;98138.94;4954711;29;20235;-28
2023/04/10 02:39:54;;;;;;;4.37;4.07;;;;;;;19.41;49.34;98152.59;4955908;28;20232;-29
2023/04/10 02:42:21;;;;;;;4.23;3.93;;;;;;;19.38;49.42;98140.59;4946706;28;20208;-28
2023/04/10 02:44:47;;;;;;;4.60;4.20;;;;;;;19.38;49.58;98138.06;4951542;28;20667;-29
2023/04/10 02:47:14;;;;;;;4.70;4.30;;;;;;;19.39;49.48;98142.34;4946452;29;20652;-27
2023/04/10 02:49:41;;;;;;;4.37;4.00;;;;;;;19.41;49.03;98145.84;4952715;29;20193;-27
2023/04/10 02:52:08;;;;;;;4.53;4.17;;;;;;;19.40;48.97;98149.19;4950672;28;20236;-27
2023/04/10 02:54:34;;;;;;;4.37;3.97;;;;;;;19.42;49.80;98150.13;4955687;28;20299;-27
2023/04/10 02:57:01;;;;;;;4.80;4.40;;;;;;;19.41;49.44;98150.94;4953005;28;20236;-28
2023/04/10 02:59:27;;;;;;;4.60;4.20;;;;;;;19.41;49.49;98153.50;4951501;28;20687;-28
2023/04/10 03:01:54;;;;;;;4.47;4.07;;;;;;;19.42;49.67;98144.19;4944266;29;20219;-27
2023/04/10 03:04:21;;;;;;;4.83;4.37;;;;;;;19.42;49.79;98146.72;4951080;29;20231;-29
2023/04/10 03:06:47;;;;;;;4.67;4.27;;;;;;;19.42;49.69;98139.94;4949498;29;20205;-29
2023/04/10 03:09:14;;;;;;;4.10;3.80;;;;;;;19.40;49.54;98146.66;4947678;28;20599;-28
2023/04/10 03:11:40;;;;;;;4.77;4.37;;;;;;;19.41;49.36;98144.97;4950569;29;20316;-27
2023/04/10 03:14:08;;;;;;;4.50;4.20;;;;;;;19.31;49.61;98130.94;4952961;29;20204;-28
2023/04/10 03:16:35;;;;;;;4.00;3.70;;;;;;;19.39;49.67;98139.78;4953548;28;20204;-29
2023/04/10 03:19:02;;;;;;;4.73;4.33;;;;;;;19.42;49.54;98145.03;4946127;28;20224;-27
2023/04/10 03:21:28;;;;;;;4.10;3.80;;;;;;;19.39;49.28;98141.47;4948772;28;20310;-28
2023/04/10 03:23:55;;;;;;;5.00;4.50;;;;;;;19.31;49.40;98135.13;4955129;29;20683;-27
2023/04/10 03:26:22;;;;;;;4.70;4.30;;;;;;;19.34;49.27;98140.38;4944275;29;20201;-29
2023/04/10 03:28:49;;;;;;;4.20;3.90;;;;;;;19.42;49.37;98156.91;4955372;28;20291;-30
2023/04/10 03:31:16;;;;;;;4.77;4.37;;;;;;;19.42;49.03;98160.31;4950989;28;20231;-28
2023/04/10 03:33:42;;;;;;;4.67;4.30;;;;;;;19.41;49.56;98157.69;4947586;29;20568;-28
2023/04/10 03:36:10;;;;;;;4.90;4.50;;;;;;;19.41;49.13;98150.94;4954660;29;20207;-27
2023/04/10 03:38:36;;;;;;;4.87;4.47;;;;;;;19.40;49.76;98144.09;4954338;29;20216;-27
2023/04/10 03:41:03;;;;;;;4.40;4.10;;;;;;;19.42;49.54;98149.28;4952444;28;20239;-29
2023/04/10 03:43:30;;;;;;;5.90;4.60;;;;;;;19.41;49.48;98148.38;4946352;29;20212;-28
2023/04/10 03:45:57;;;;;;;4.60;4.20;;;;;;;19.40;49.63;98153.41;4951747;29;20208;-27
2023/04/10 03:48:26;;;;;;;5.10;4.70;;;;;;;19.41;50.21;98153.50;4947190;29;20216;-29
2023/04/10 03:50:56;;;;;;;4.70;4.30;;;;;;;19.41;49.61;98158.59;4952669;28;20228;-28
2023/04/10 03:53:23;;;;;;;4.57;4.20;;;;;;;19.41;49.55;98155.16;4954651;28;20235;-29
2023/04/10 03:55:51;;;;;;;4.20;3.90;;;;;;;19.40;49.13;98149.19;4955448;28;20205;-27
2023/04/10 03:58:18;;;;;;;4.33;3.93;;;;;;;19.42;49.42;98151.81;4946960;29;20275;-29
2023/04/10 04:00:45;;;;;;;4.47;4.10;;;;;;;19.41;49.48;98153.50;4954249;28;20729;-28
2023/04/10 04:03:11;;;;;;;4.57;4.17;;;;;;;19.42;49.49;98154.38;4938928;29;20204;-35
2023/04/10 04:05:38;;;;;;;4.50;4.10;;;;;;;19.37;49.94;98153.28;4949830;29;20223;-30
2023/04/10 04:08:05;;;;;;;4.37;4.00;;;;;;;19.39;49.65;98149.97;4946674;28;20205;-27
2023/04/10 04:10:32;;;;;;;4.67;4.27;;;;;;;19.41;49.66;98156.03;4954007;28;20801;-28
2023/04/10 04:12:59;;;;;;;4.73;4.33;;;;;;;19.41;49.40;98153.50;4950533;28;20215;-31
2023/04/10 04:15:25;;;;;;;4.57;4.17;;;;;;;19.42;49.84;98159.47;4949343;29;20197;-28
2023/04/10 04:17:52;;;;;;;4.43;4.13;;;;;;;19.41;49.46;98158.59;4931715;29;20260;-28
2023/04/10 04:20:18;;;;;;;3.97;3.67;;;;;;;19.36;49.43;98162.56;4945475;29;20232;-28
2023/04/10 04:22:45;;;;;;;4.30;3.90;;;;;;;19.42;49.53;98164.56;4950025;29;20682;-28
2023/04/10 04:25:12;;;;;;;4.20;3.90;;;;;;;19.40;49.51;98161.06;4947467;29;20201;-27
2023/04/10 04:27:38;;;;;;;4.20;3.90;;;;;;;19.40;49.43;98159.41;4946770;29;20204;-28
2023/04/10 04:30:06;;;;;;;4.23;3.93;;;;;;;19.40;49.64;98167.03;4940571;29;20227;-29
2023/04/10 04:32:32;;;;;;;4.60;4.23;;;;;;;19.41;49.29;98165.34;4952782;29;20208;-28
2023/04/10 04:34:59;;;;;;;4.63;4.23;;;;;;;19.41;49.60;98173.00;4949510;28;20204;-27
2023/04/10 04:37:25;;;;;;;4.47;4.07;;;;;;;19.31;49.28;98165.72;4949255;28;20283;-29
2023/04/10 04:39:52;;;;;;;4.03;3.73;;;;;;;19.39;49.48;98180.56;4945755;29;20730;-28
2023/04/10 04:42:19;;;;;;;4.60;4.20;;;;;;;19.40;49.38;98174.69;4952116;28;20204;-29
2023/04/10 04:44:45;;;;;;;4.50;4.10;;;;;;;19.41;49.48;98176.44;4953814;29;20200;-28
2023/04/10 04:47:12;;;;;;;4.50;4.10;;;;;;;19.39;49.62;98175.47;4953364;28;20675;-29
2023/04/10 04:49:38;;;;;;;4.47;4.10;;;;;;;19.43;49.15;98179.06;4942711;28;20194;-28
2023/04/10 04:52:05;;;;;;;4.10;3.80;;;;;;;19.39;49.36;98174.63;4942685;29;20665;-29
2023/04/10 04:54:31;;;;;;;4.37;4.07;;;;;;;19.33;48.94;98166.69;4953390;29;20263;-28
2023/04/10 04:56:58;;;;;;;4.43;4.07;;;;;;;19.43;49.65;98177.38;4953833;29;20476;-28
2023/04/10 04:59:24;;;;;;;4.43;4.13;;;;;;;19.44;49.54;98171.47;4947950;29;20315;-28
2023/04/10 05:01:51;;;;;;;4.10;3.80;;;;;;;19.31;49.79;98151.31;4941743;29;20215;-28
2023/04/10 05:04:19;;;;;;;4.13;3.77;;;;;;;19.44;49.33;98178.25;4948979;28;20215;-27
2023/04/10 05:06:46;;;;;;;4.17;3.80;;;;;;;19.44;49.37;98178.25;4949781;29;20208;-28
2023/04/10 05:09:12;;;;;;;4.43;4.03;;;;;;;19.45;49.54;98185.09;4953101;29;20197;-27
2023/04/10 05:11:39;;;;;;;4.30;4.00;;;;;;;19.44;49.47;98183.34;4950485;29;20228;-27
2023/04/10 05:14:05;;;;;;;5.40;3.87;;;;;;;19.45;49.38;98192.75;4939768;29;20691;-28
2023/04/10 05:16:32;;;;;;;4.50;4.10;;;;;;;19.44;49.32;98189.31;4950952;29;20564;-27
2023/04/10 05:18:58;;;;;;;4.30;3.90;;;;;;;19.44;49.59;98189.31;4951213;28;20318;-27
2023/04/10 05:21:26;;;;;;;4.10;3.77;;;;;;;19.44;49.53;98198.63;4934855;29;20302;-28
2023/04/10 05:23:52;;;;;;;4.37;4.00;;;;;;;18.90;49.47;98100.00;4934182;29;20213;-28
2023/04/10 05:26:19;;;;;;;4.73;4.17;;;;;;;19.44;49.52;98202.06;4938846;29;20208;-28
2023/04/10 05:28:46;;;;;;;3.97;3.67;;;;;;;19.44;49.69;98202.06;4938700;29;20204;-28
2023/04/10 05:31:12;;;;;;;4.63;4.23;;;;;;;19.44;49.50;98190.97;4936454;29;20228;-27
2023/04/10 05:33:39;;;;;;;4.60;4.20;;;;;;;19.44;49.24;98198.63;4937522;29;20220;-28
2023/04/10 05:36:06;;;;;;;4.20;3.90;;;;;;;19.44;49.45;98189.31;4935559;29;20256;-28
2023/04/10 05:38:33;;;;;;;4.53;4.17;;;;;;;19.45;49.72;98197.84;4936922;29;20239;-27
2023/04/10 05:40:59;;;;;;;4.57;4.17;;;;;;;19.43;49.38;98202.88;4938083;28;20228;-28
2023/04/10 05:43:26;;;;;;;4.83;4.43;;;;;;;19.44;49.27;98203.72;4938798;29;20215;-28
2023/04/10 05:45:52;;;;;;;4.50;4.10;;;;;;;19.44;49.38;98206.28;4936810;28;20665;-27
2023/04/10 05:48:19;;;;;;;4.43;4.10;;;;;;;19.43;49.24;98205.44;4937239;29;20585;-28
2023/04/10 05:50:45;;;;;;;4.10;3.80;;;;;;;19.44;49.42;98219.91;4936846;28;20317;-27
2023/04/10 05:53:13;;;;;;;4.60;4.20;;;;;;;19.43;49.41;98212.19;4937989;28;20712;-28
2023/04/10 05:55:39;;;;;;;4.80;4.40;;;;;;;19.43;49.15;98213.06;4941865;28;20246;-30
2023/04/10 05:58:06;;;;;;;4.40;4.10;;;;;;;19.44;49.35;98211.38;4939757;28;20211;-28
2023/04/10 06:00:32;;;;;;;4.03;3.73;;;;;;;19.43;49.20;98210.53;4926635;29;20779;-28
2023/04/10 06:02:59;;;;;;;4.17;3.87;;;;;;;19.44;49.42;98217.34;4941991;29;20671;-28
2023/04/10 06:05:26;;;;;;;4.20;3.80;;;;;;;19.40;49.23;98201.84;4940727;29;20213;-26
2023/04/10 06:07:53;;;;;;;4.40;4.10;;;;;;;19.43;49.19;98204.53;4924646;29;20764;-28
2023/04/10 06:10:23;;;;;;;4.50;4.10;;;;;;;19.42;49.43;98193.47;4940512;28;20286;-26
2023/04/10 06:12:49;;;;;;;3.97;3.67;;;;;;;19.43;49.67;98205.44;4943209;29;20212;-28
2023/04/10 06:15:16;;;;;;;4.13;3.73;;;;;;;19.42;49.47;98201.09;4938677;29;20220;-28
2023/04/10 06:17:43;;;;;;;4.47;4.10;;;;;;;19.44;49.04;98193.53;4942868;29;20236;-26
2023/04/10 06:20:10;;;;;;;4.03;3.73;;;;;;;19.40;49.42;98189.09;4939072;28;20227;-26
2023/04/10 06:22:36;;;;;;;4.17;3.80;;;;;;;19.42;48.91;98188.34;4939705;29;20213;-28
2023/04/10 06:25:04;;;;;;;4.17;3.80;;;;;;;19.43;49.51;98189.25;4936822;28;20215;-26
2023/04/10 06:27:32;;;;;;;3.97;3.67;;;;;;;19.39;49.39;98183.13;4940219;29;20212;-26
2023/04/10 06:29:58;;;;;;;4.13;3.83;;;;;;;19.43;49.52;98181.59;4920327;29;20721;-28
2023/04/10 06:32:25;;;;;;;4.33;4.03;;;;;;;19.43;49.50;98177.38;4921730;29;20212;-27
2023/04/10 06:34:52;;;;;;;4.60;4.20;;;;;;;19.44;49.40;98179.13;4939932;28;20205;-27
2023/04/10 06:37:18;;;;;;;4.07;3.77;;;;;;;19.44;49.71;98179.13;4940288;29;20215;-25
2023/04/10 06:39:45;;;;;;;4.63;4.23;;;;;;;19.44;49.55;98178.25;4937413;29;20490;-27
2023/04/10 06:42:11;;;;;;;4.47;4.07;;;;;;;19.44;49.55;98179.13;4939517;28;20209;-27
2023/04/10 06:44:38;;;;;;;4.10;3.70;;;;;;;19.45;49.44;98178.31;4940387;29;20691;-27
2023/04/10 06:47:05;;;;;;;4.20;3.90;;;;;;;19.39;48.93;98161.88;4940291;29;20219;-28
2023/04/10 06:49:32;;;;;;;4.40;4.00;;;;;;;19.44;49.20;98168.94;4924342;28;20200;-27
2023/04/10 06:51:59;;;;;;;3.93;3.57;;;;;;;19.43;49.20;98176.50;4941303;28;20209;-27
2023/04/10 06:54:25;;;;;;;4.33;3.90;;;;;;;19.45;49.28;98174.91;4938833;29;20212;-27
2023/04/10 06:56:52;;;;;;;4.30;3.93;;;;;;;19.45;49.01;98174.91;4943837;28;20299;-28
2023/04/10 06:59:18;;;;;;;4.00;3.70;;;;;;;19.45;49.36;98180.00;4939284;29;20224;-28
2023/04/10 07:01:45;;;;;;;3.60;3.30;;;;;;;19.46;49.20;98176.66;4940750;28;20243;-28
2023/04/10 07:04:11;;;;;;;3.83;3.53;;;;;;;19.45;48.78;98175.75;4939107;29;20213;-27
2023/04/10 07:06:38;;;;;;;4.30;3.90;;;;;;;19.45;49.04;98173.22;4937309;29;20223;-27
2023/04/10 07:09:05;;;;;;;3.90;3.60;;;;;;;19.45;49.21;98170.66;4940773;29;20215;-26
2023/04/10 07:11:31;;;;;;;4.30;3.90;;;;;;;19.45;48.81;98172.34;4940788;29;20572;-28
2023/04/10 07:13:59;;;;;;;6.30;3.93;;;;;;;19.46;48.74;98166.44;4940140;29;20237;-28
2023/04/10 07:16:28;;;;;;;4.10;3.73;;;;;;;18.79;48.75;98055.31;4939847;29;21121;-24
2023/04/10 07:18:54;;;;;;;4.20;3.90;;;;;;;19.44;49.20;98174.03;4940242;29;20534;-27
2023/04/10 07:21:22;;;;;;;4.07;3.77;;;;;;;19.44;48.80;98175.69;4937809;28;20236;-28
2023/04/10 07:23:48;;;;;;;4.30;3.67;;;;;;;19.45;48.95;98178.31;4938663;29;20218;-28
2023/04/10 07:26:15;;;;;;;4.27;3.97;;;;;;;19.46;48.88;98179.19;4939533;29;20219;-27
2023/04/10 07:28:41;;;;;;;3.90;3.60;;;;;;;19.45;49.24;98169.81;4938572;28;20240;-26
2023/04/10 07:31:09;;;;;;;3.90;3.60;;;;;;;19.44;48.89;98168.03;4940486;28;20320;-28
2023/04/10 07:33:39;;;;;;;4.03;3.70;;;;;;;19.45;49.14;98177.47;4940516;29;20212;-28
2023/04/10 07:36:07;;;;;;;3.80;3.50;;;;;;;19.46;49.22;98176.66;4939088;29;20580;-28
2023/04/10 07:38:33;;;;;;;4.00;3.70;;;;;;;19.44;48.94;98176.56;4941106;29;20212;-24
2023/04/10 07:41:00;;;;;;;3.47;3.17;;;;;;;19.45;49.46;98178.31;4938058;28;20283;-27
2023/04/10 07:43:26;;;;;;;3.80;3.50;;;;;;;19.46;48.61;98184.28;4939896;28;20239;-28
2023/04/10 07:45:53;;;;;;;3.73;3.43;;;;;;;19.46;49.13;98186.84;4937076;29;20212;-28
2023/04/10 07:48:20;;;;;;;3.70;3.40;;;;;;;19.46;49.40;98184.28;4939822;29;20208;-26
2023/04/10 07:50:46;;;;;;;3.90;3.60;;;;;;;19.45;48.73;98170.66;4937099;29;20236;-31
2023/04/10 07:53:13;;;;;;;4.10;3.80;;;;;;;19.46;49.29;98174.09;4938376;29;20213;-28
2023/04/10 07:55:41;;;;;;;3.87;3.57;;;;;;;19.46;49.07;98172.44;4938840;29;20656;-28
2023/04/10 07:58:08;;;;;;;3.80;3.50;;;;;;;19.46;49.33;98169.00;4935810;29;20592;-28
2023/04/10 08:00:35;;;;;;;3.80;3.50;;;;;;;19.47;49.24;98168.19;4940072;29;20312;-27
2023/04/10 08:03:02;;;;;;;3.63;3.33;;;;;;;19.47;49.25;98168.19;4941236;29;20588;-28
2023/04/10 08:05:29;;;;;;;3.83;3.47;;;;;;;19.47;49.02;98163.09;4937482;29;20287;-28
2023/04/10 08:07:56;;;;;;;3.70;3.40;;;;;;;19.46;49.25;98159.69;4937704;29;20215;-25
2023/04/10 08:10:23;;;;;;;3.50;3.20;;;;;;;19.47;49.37;98158.00;4939399;28;20679;-27
2023/04/10 08:12:49;;;;;;;4.33;3.93;;;;;;;19.48;49.21;98155.50;4922226;29;20205;-28
2023/04/10 08:15:17;;;;;;;4.10;3.80;;;;;;;19.44;49.25;98147.66;4921891;29;20298;-27
2023/04/10 08:17:43;;;;;;;3.57;3.37;;;;;;;19.47;48.77;98153.78;4923336;29;20216;-27
2023/04/10 08:20:10;;;;;;;3.80;3.50;;;;;;;19.46;49.13;98154.59;4937232;28;20260;-28
2023/04/10 08:22:37;;;;;;;3.40;3.20;;;;;;;19.46;49.08;98152.03;4938414;29;20347;-27
2023/04/10 08:25:04;;;;;;;3.90;3.60;;;;;;;19.47;49.19;98153.78;4940217;29;20638;-25
2023/04/10 08:27:30;;;;;;;3.80;3.50;;;;;;;19.47;49.05;98146.13;4936727;29;20219;-25
2023/04/10 08:29:57;;;;;;;3.77;3.47;;;;;;;19.47;49.52;98147.78;4942273;28;20228;-27
2023/04/10 08:32:25;;;;;;;3.93;3.63;;;;;;;19.47;49.23;98152.88;4938323;28;20236;-26
2023/04/10 08:34:52;;;;;;;4.43;4.00;;;;;;;19.47;48.89;98155.44;4939593;29;20219;-27
2023/04/10 08:37:20;;;;;;;4.30;4.00;;;;;;;19.44;49.09;98148.53;4922835;29;20204;-28
2023/04/10 08:39:46;;;;;;;4.67;4.27;;;;;;;19.45;49.10;98147.72;4924033;29;20819;-27
2023/04/10 08:42:13;;;;;;;4.67;4.27;;;;;;;19.46;49.77;98149.50;4939966;29;20214;-28
2023/04/10 08:44:40;;;;;;;4.00;3.70;;;;;;;19.46;48.90;98153.72;4938188;28;20284;-24
2023/04/10 08:47:07;;;;;;;5.40;4.90;;;;;;;19.43;48.96;98144.25;4937623;28;20687;-26
2023/04/10 08:49:43;;;;;;;4.60;4.20;;;;;;;19.42;49.07;98146.72;4909093;29;20220;-29
2023/04/10 08:52:23;;;;;;;4.27;3.87;;;;;;;19.44;49.02;98142.56;4922295;29;20301;-28
2023/04/10 08:54:55;;;;;;;4.80;4.40;;;;;;;19.45;48.99;98144.31;4923099;29;20295;-28
2023/04/10 08:57:22;;;;;;;5.40;4.90;;;;;;;19.44;49.18;98134.91;4905957;29;20292;-26
2023/04/10 08:59:50;;;;;;;5.27;4.80;;;;;;;19.44;49.08;98137.44;4937219;29;20232;-24
2023/04/10 09:02:17;;;;;;;4.97;4.53;;;;;;;19.44;49.38;98145.09;4940306;29;20699;-28
2023/04/10 09:04:53;;;;;;;4.70;4.30;;;;;;;19.44;49.15;98142.56;4943552;29;20619;-27
2023/04/10 09:07:21;;;;;;;4.70;4.30;;;;;;;19.35;49.16;98124.28;4952951;29;20633;-27
2023/04/10 09:09:48;;;;;;;4.70;4.30;;;;;;;19.44;48.89;98128.13;4930902;29;20234;-28
2023/04/10 09:12:15;;;;;;;4.90;4.50;;;;;;;19.44;49.11;98129.81;4938452;29;20654;-28
2023/04/10 09:14:41;;;;;;;5.07;4.57;;;;;;;19.43;49.38;98133.16;4936083;29;20216;-25
2023/04/10 09:17:23;;;;;;;5.33;4.83;;;;;;;19.45;49.13;98131.56;4935843;29;20295;-28
2023/04/10 09:19:54;;;;;;;5.00;4.60;;;;;;;19.43;49.26;98117.88;4936067;29;20228;-27
2023/04/10 09:22:33;;;;;;;5.33;4.87;;;;;;;19.43;49.10;98123.84;4936044;29;20216;-28
2023/04/10 09:25:01;;;;;;;5.33;4.83;;;;;;;19.45;49.15;98116.28;4937459;29;20292;-27
2023/04/10 09:27:34;;;;;;;4.90;4.50;;;;;;;19.44;49.04;98120.50;4937024;29;20209;-28
2023/04/10 09:30:01;;;;;;;4.50;4.10;;;;;;;19.45;48.98;98126.47;4935796;28;20704;-28
2023/04/10 09:32:44;;;;;;;4.47;4.17;;;;;;;19.43;49.09;98121.31;4936958;29;20213;-27
2023/04/10 09:35:11;;;;;;;4.90;4.50;;;;;;;19.41;49.08;98111.81;4939288;29;20220;-27
2023/04/10 09:37:39;;;;;;;5.00;4.60;;;;;;;19.45;48.91;98111.19;4922513;29;20213;-27
2023/04/10 09:40:20;;;;;;;4.93;4.53;;;;;;;19.44;48.85;98112.84;4937711;29;20230;-26
2023/04/10 09:42:46;;;;;;;4.43;4.13;;;;;;;19.44;48.91;98117.94;4925063;29;20667;-28
2023/04/10 09:45:13;;;;;;;4.83;4.43;;;;;;;19.37;48.78;98092.09;4937877;29;20583;-25
2023/04/10 09:47:39;;;;;;;4.93;4.50;;;;;;;19.44;48.64;98099.22;4937781;29;21089;-28
2023/04/10 09:50:06;;;;;;;5.07;4.63;;;;;;;19.44;48.79;98104.31;4936125;29;20638;-28
2023/04/10 09:52:34;;;;;;;4.80;4.40;;;;;;;19.43;48.79;98098.38;4923173;29;20660;-27
2023/04/10 09:55:03;;;;;;;4.93;4.53;;;;;;;19.44;48.92;98097.56;4937642;29;20216;-25
2023/04/10 09:57:30;;;;;;;4.80;4.40;;;;;;;19.43;48.91;98087.28;4937768;29;20216;-26
2023/04/10 10:00:03;;;;;;;4.97;4.53;;;;;;;19.43;49.16;98082.19;4937429;28;20295;-27
2023/04/10 10:02:30;;;;;;;4.63;4.23;;;;;;;19.42;48.96;98094.03;4937228;29;20240;-26
2023/04/10 10:05:00;;;;;;;4.97;4.57;;;;;;;19.43;48.98;98097.47;4907293;29;20857;-28
2023/04/10 10:07:27;;;;;;;5.00;4.60;;;;;;;19.39;49.00;98077.75;4937687;29;20208;-28
2023/04/10 10:09:53;;;;;;;5.17;4.67;;;;;;;19.43;48.74;98074.53;4918157;29;20221;-25
2023/04/10 10:12:46;;;;;;;4.97;4.57;;;;;;;19.43;48.89;98070.31;4906143;29;20882;-27
2023/04/10 10:15:41;;;;;;;4.43;4.03;;;;;;;19.43;49.16;98070.31;4920934;29;20204;-28
2023/04/10 10:18:40;;;;;;;4.70;4.30;;;;;;;19.42;48.99;98054.97;4938753;29;20584;-27
2023/04/10 10:21:08;;;;;;;4.03;3.73;;;;;;;19.43;48.91;98051.59;4902767;28;20265;-27
2023/04/10 10:23:35;;;;;;;4.67;4.27;;;;;;;19.42;49.14;98047.31;4937141;29;20204;-27
2023/04/10 10:26:04;;;;;;;4.27;3.97;;;;;;;19.42;48.94;98048.16;4919209;29;20212;-28
2023/04/10 10:28:31;;;;;;;3.90;3.60;;;;;;;19.39;48.98;98036.97;4936810;29;20209;-31
2023/04/10 10:30:58;;;;;;;4.37;4.03;;;;;;;19.44;49.11;98038.03;4918319;29;20225;-28
2023/04/10 10:33:25;;;;;;;4.30;4.00;;;;;;;19.44;48.99;98032.94;4903840;29;20208;-27
2023/04/10 10:35:51;;;;;;;4.37;3.97;;;;;;;19.44;48.94;98026.19;4940686;28;20207;-28
2023/04/10 10:38:18;;;;;;;4.17;3.87;;;;;;;19.39;49.25;98016.59;4922752;29;20717;-28
2023/04/10 10:40:50;;;;;;;4.30;4.00;;;;;;;19.40;48.96;98016.66;4910316;29;20720;-27
2023/04/10 10:43:26;;;;;;;3.90;3.50;;;;;;;19.45;49.10;98025.38;4910839;29;20664;-28
2023/04/10 10:46:00;;;;;;;4.27;3.87;;;;;;;19.47;49.11;98020.34;4909378;28;20204;-28
2023/04/10 10:48:27;;;;;;;4.30;3.90;;;;;;;19.47;49.00;98010.13;4935693;29;20218;-28
2023/04/10 10:50:56;;;;;;;4.30;3.90;;;;;;;19.49;48.97;98018.75;4955332;28;20320;-28
2023/04/10 10:53:33;;;;;;;3.90;3.60;;;;;;;19.40;49.00;97995.38;4949191;29;20200;-28
2023/04/10 10:56:18;;;;;;;4.00;3.70;;;;;;;19.48;49.04;98005.13;4956023;29;20204;-28
2023/04/10 10:58:48;;;;;;;3.80;3.50;;;;;;;19.48;48.95;98005.13;4947829;28;20208;-28
2023/04/10 11:01:15;;;;;;;3.67;3.37;;;;;;;19.49;49.00;98006.88;4949622;28;20675;-28
2023/04/10 11:03:45;;;;;;;4.00;3.70;;;;;;;19.49;48.96;97993.25;4948725;28;20208;-28
2023/04/10 11:06:15;;;;;;;3.60;3.30;;;;;;;19.49;49.09;98001.78;4934237;29;20213;-28
2023/04/10 11:08:44;;;;;;;3.77;3.47;;;;;;;19.47;49.14;97995.72;4950374;29;20635;-28
2023/04/10 11:11:22;;;;;;;3.90;3.60;;;;;;;19.47;49.07;97993.19;4947287;29;20681;-42
2023/04/10 11:13:48;;;;;;;4.00;3.70;;;;;;;19.47;48.86;97985.53;4947396;29;20223;-27
2023/04/10 11:16:15;;;;;;;3.80;3.50;;;;;;;19.47;49.04;97980.44;4948702;29;20258;-28
2023/04/10 11:18:47;;;;;;;3.80;3.50;;;;;;;19.46;49.09;97978.69;4934160;29;20599;-30
2023/04/10 11:21:31;;;;;;;3.43;3.17;;;;;;;19.46;48.88;97970.16;4950403;29;20266;-29
2023/04/10 11:23:58;;;;;;;4.10;3.80;;;;;;;19.46;49.24;97962.53;4951525;29;20200;-28
2023/04/10 11:29:01;;;;;;;4.30;3.90;;;;;;;19.33;49.19;97942.41;4952059;29;20204;-27
2023/04/10 11:31:27;;;;;;;3.80;3.50;;;;;;;19.45;49.46;97961.63;4934386;29;20604;-27
2023/04/10 11:34:01;;;;;;;4.17;3.87;;;;;;;19.45;49.23;97961.63;4937630;28;20681;-27
2023/04/10 11:36:28;;;;;;;4.00;3.70;;;;;;;19.43;49.12;97962.38;4955129;29;20212;-29
2023/04/10 11:38:59;;;;;;;3.93;3.63;;;;;;;19.45;49.04;97956.53;4954419;29;20205;-29
2023/04/10 11:41:33;;;;;;;4.07;3.77;;;;;;;19.44;49.07;97957.34;4948526;29;20223;-27
2023/04/10 11:44:00;;;;;;;4.23;3.93;;;;;;;19.46;49.66;97949.78;4953162;29;20208;-28